createdAt,value
2022-09-18T00:01:15.312Z,98963.77
2022-09-18T00:03:48.991Z,98963.22
2022-09-18T00:06:24.131Z,98962.45
2022-09-18T00:08:59.769Z,98965.55
2022-09-18T00:11:36.793Z,98961.85
2022-09-18T00:14:11.964Z,98959.59
2022-09-18T00:16:45.693Z,98963.48
2022-09-18T00:19:19.911Z,98962.04
2022-09-18T00:21:54.046Z,98963.81
2022-09-18T00:24:27.270Z,98962.94
2022-09-18T00:27:00.501Z,98967.97
2022-09-18T00:29:34.082Z,98970.36
2022-09-18T00:32:07.567Z,98972.48
2022-09-18T00:34:41.921Z,98974.75
2022-09-18T00:37:15.431Z,98972.23
2022-09-18T00:39:48.567Z,98976.36
2022-09-18T00:42:22.843Z,98975.55
2022-09-18T00:44:55.953Z,98974.34
2022-09-18T00:47:32.013Z,98976.32
2022-09-18T00:50:11.970Z,98971.40
2022-09-18T00:52:55.848Z,98975.00
2022-09-18T00:55:33.681Z,98979.86
2022-09-18T00:58:08.391Z,98981.27
2022-09-18T01:00:41.721Z,98982.21
2022-09-18T01:03:14.990Z,98982.56
2022-09-18T01:06:04.876Z,98980.77
2022-09-18T01:08:53.480Z,98979.73
2022-09-18T01:11:38.241Z,98978.81
2022-09-18T01:14:30.598Z,98976.30
2022-09-18T01:17:15.831Z,98973.88
2022-09-18T01:20:12.889Z,98972.36
2022-09-18T01:23:01.649Z,98964.21
2022-09-18T01:25:48.759Z,98968.45
2022-09-18T01:28:27.842Z,98964.86
2022-09-18T01:31:06.287Z,98964.95
2022-09-18T01:33:45.450Z,98963.52
2022-09-18T01:36:22.681Z,98963.77
2022-09-18T01:39:01.240Z,98967.25
2022-09-18T01:41:33.269Z,98966.23
2022-09-18T01:44:10.955Z,98963.34
2022-09-18T01:46:46.639Z,98964.73
2022-09-18T01:49:26.038Z,98963.13
2022-09-18T01:52:04.633Z,98960.14
2022-09-18T01:54:42.175Z,98959.66
2022-09-18T01:57:23.069Z,98959.50
2022-09-18T02:00:00.134Z,98953.11
2022-09-18T02:02:39.716Z,98948.27
2022-09-18T02:05:18.179Z,98946.84
2022-09-18T02:07:58.648Z,98946.55
2022-09-18T02:10:37.071Z,98947.57
2022-09-18T02:13:13.730Z,98945.95
2022-09-18T02:15:49.543Z,98940.95
2022-09-18T02:18:32.582Z,98941.21
2022-09-18T02:21:13.340Z,98947.05
2022-09-18T02:23:49.149Z,98947.40
2022-09-18T02:26:23.582Z,98944.64
2022-09-18T02:28:58.217Z,98944.13
2022-09-18T02:31:32.016Z,98940.90
2022-09-18T02:34:09.212Z,98944.28
2022-09-18T02:37:10.590Z,98940.06
2022-09-18T02:39:56.627Z,98937.83
2022-09-18T02:42:41.722Z,98938.38
2022-09-18T02:45:25.323Z,98940.08
2022-09-18T02:48:13.088Z,98936.92
2022-09-18T02:50:59.092Z,98934.26
2022-09-18T02:53:36.965Z,98934.35
2022-09-18T02:56:15.952Z,98932.83
2022-09-18T02:58:53.764Z,98930.14
2022-09-18T03:01:29.309Z,98926.56
2022-09-18T03:04:08.110Z,98920.73
2022-09-18T03:06:52.797Z,98924.52
2022-09-18T03:09:26.585Z,98920.54
2022-09-18T03:12:00.032Z,98919.63
2022-09-18T03:14:33.167Z,98914.86
2022-09-18T03:17:09.166Z,98915.27
2022-09-18T03:19:44.959Z,98915.16
2022-09-18T03:22:19.572Z,98911.57
2022-09-18T03:24:54.439Z,98911.13
2022-09-18T03:27:28.032Z,98908.45
2022-09-18T03:30:01.453Z,98908.95
2022-09-18T03:32:38.037Z,98909.42
2022-09-18T03:35:14.358Z,98914.33
2022-09-18T03:37:48.103Z,98917.02
2022-09-18T03:40:25.495Z,98920.48
2022-09-18T03:42:59.013Z,98928.17
2022-09-18T03:45:32.485Z,98933.64
2022-09-18T03:48:07.528Z,98940.08
2022-09-18T03:50:41.519Z,98943.61
2022-09-18T03:53:14.961Z,98945.27
2022-09-18T03:56:02.474Z,98948.60
2022-09-18T03:58:54.873Z,98947.48
2022-09-18T04:01:43.346Z,98947.38
2022-09-18T04:04:35.921Z,98951.48
2022-09-18T04:07:28.057Z,98951.66
2022-09-18T04:10:22.976Z,98951.95
2022-09-18T04:12:56.168Z,98951.46
2022-09-18T04:15:32.428Z,98952.37
2022-09-18T04:18:05.584Z,98952.63
2022-09-18T04:20:39.100Z,98953.69
2022-09-18T04:23:14.914Z,98954.36
2022-09-18T04:25:48.245Z,98949.98
2022-09-18T04:28:21.731Z,98951.92
2022-09-18T04:30:55.031Z,98950.86
2022-09-18T04:33:28.021Z,98951.91
2022-09-18T04:36:01.336Z,98952.54
2022-09-18T04:38:34.915Z,98952.21
2022-09-18T04:41:08.924Z,98954.46
2022-09-18T04:43:42.355Z,98956.12
2022-09-18T04:46:16.063Z,98955.08
2022-09-18T04:48:51.760Z,98953.89
2022-09-18T04:51:26.758Z,98952.65
2022-09-18T04:54:00.241Z,98954.64
2022-09-18T04:56:33.217Z,98955.09
2022-09-18T04:59:06.714Z,98947.07
2022-09-18T05:01:40.319Z,98951.88
2022-09-18T05:04:17.814Z,98951.55
2022-09-18T05:06:58.158Z,98951.73
2022-09-18T05:09:31.320Z,98952.32
2022-09-18T05:12:04.961Z,98951.02
2022-09-18T05:14:39.426Z,98952.45
2022-09-18T05:17:14.209Z,98950.85
2022-09-18T05:19:58.080Z,98949.02
2022-09-18T05:22:35.925Z,98949.77
2022-09-18T05:25:10.604Z,98954.86
2022-09-18T05:27:43.725Z,98955.23
2022-09-18T05:30:17.853Z,98955.95
2022-09-18T05:33:00.225Z,98955.70
2022-09-18T05:35:36.433Z,98959.20
2022-09-18T05:38:11.875Z,98961.59
2022-09-18T05:40:49.374Z,98961.84
2022-09-18T05:43:22.747Z,98963.38
2022-09-18T05:45:56.731Z,98959.77
2022-09-18T05:48:37.899Z,98960.48
2022-09-18T05:51:11.044Z,98959.66
2022-09-18T05:53:48.888Z,98960.66
2022-09-18T05:56:25.681Z,98958.39
2022-09-18T05:59:00.684Z,98960.48
2022-09-18T06:01:36.248Z,98958.41
2022-09-18T06:04:18.096Z,98962.69
2022-09-18T06:07:11.980Z,98965.20
2022-09-18T06:09:47.799Z,98967.31
2022-09-18T06:12:21.134Z,98968.20
2022-09-18T06:14:55.840Z,98965.59
2022-09-18T06:17:31.449Z,98969.84
2022-09-18T06:20:08.997Z,98970.74
2022-09-18T06:22:42.250Z,98968.64
2022-09-18T06:25:18.632Z,98973.91
2022-09-18T06:27:54.943Z,98975.63
2022-09-18T06:30:33.026Z,98974.84
2022-09-18T06:33:07.562Z,98971.65
2022-09-18T06:35:44.594Z,98975.02
2022-09-18T06:38:18.727Z,98977.99
2022-09-18T06:40:56.237Z,98979.88
2022-09-18T06:43:45.639Z,98981.00
2022-09-18T06:46:42.368Z,98980.15
2022-09-18T06:49:22.639Z,98979.66
2022-09-18T06:51:56.022Z,98981.42
2022-09-18T06:54:29.728Z,98984.98
2022-09-18T06:57:02.941Z,98987.87
2022-09-18T06:59:39.052Z,98988.64
2022-09-18T07:02:19.655Z,98992.73
2022-09-18T07:05:03.950Z,98993.12
2022-09-18T07:07:37.363Z,98997.25
2022-09-18T07:10:12.864Z,98996.20
2022-09-18T07:12:50.323Z,98995.26
2022-09-18T07:15:24.625Z,98996.23
2022-09-18T07:17:59.550Z,99000.83
2022-09-18T07:20:32.996Z,98998.46
2022-09-18T07:23:06.806Z,98999.61
2022-09-18T07:25:47.794Z,99000.60
2022-09-18T07:28:21.307Z,98999.60
2022-09-18T07:31:07.861Z,99003.88
2022-09-18T07:33:40.844Z,99000.93
2022-09-18T07:36:14.836Z,99001.59
2022-09-18T07:38:55.680Z,99004.98
2022-09-18T07:41:32.618Z,99004.58
2022-09-18T07:44:06.959Z,99008.05
2022-09-18T07:46:55.664Z,99006.63
2022-09-18T07:49:29.767Z,99008.22
2022-09-18T07:52:03.770Z,99012.44
2022-09-18T07:54:38.408Z,99010.86
2022-09-18T07:57:17.088Z,99013.66
2022-09-18T08:00:15.483Z,99016.48
2022-09-18T08:02:48.846Z,99018.73
2022-09-18T08:05:42.544Z,99019.70
2022-09-18T08:08:26.372Z,99019.46
2022-09-18T08:11:36.102Z,99020.74
2022-09-18T08:14:41.888Z,99023.13
2022-09-18T08:17:50.596Z,99019.26
2022-09-18T08:20:44.965Z,99019.91
2022-09-18T08:23:41.243Z,99018.61
2022-09-18T08:26:20.048Z,99016.27
2022-09-18T08:28:59.028Z,99015.05
2022-09-18T08:31:32.891Z,99017.01
2022-09-18T08:34:27.386Z,99017.29
2022-09-18T08:37:00.923Z,99020.30
2022-09-18T08:39:52.922Z,99016.81
2022-09-18T08:43:09.951Z,99015.13
2022-09-18T08:45:59.083Z,99012.60
2022-09-18T08:48:36.492Z,99011.06
2022-09-18T08:51:24.768Z,99010.98
2022-09-18T08:54:23.128Z,99013.59
2022-09-18T08:57:25.643Z,99009.10
2022-09-18T09:00:24.076Z,99008.86
2022-09-18T09:03:20.123Z,99008.40
2022-09-18T09:05:58.918Z,99010.66
2022-09-18T09:08:59.254Z,99005.16
2022-09-18T09:11:42.424Z,99001.70
2022-09-18T09:14:53.193Z,99002.19
2022-09-18T09:17:43.306Z,99004.93
2022-09-18T09:20:25.038Z,99010.33
2022-09-18T09:23:08.347Z,99008.04
2022-09-18T09:26:07.936Z,99008.25
2022-09-18T09:29:10.875Z,99002.27
2022-09-18T09:31:52.159Z,99003.80
2022-09-18T09:35:02.251Z,99002.58
2022-09-18T09:37:45.797Z,99006.02
2022-09-18T09:40:32.930Z,99006.48
2022-09-18T09:43:18.519Z,99003.38
2022-09-18T09:45:53.949Z,99001.90
2022-09-18T09:48:37.577Z,99007.37
2022-09-18T09:51:19.359Z,99009.48
2022-09-18T09:53:56.247Z,99006.95
2022-09-18T09:56:34.717Z,99008.65
2022-09-18T09:59:20.004Z,99011.95
2022-09-18T10:02:34.722Z,99011.91
2022-09-18T10:05:28.209Z,99015.70
2022-09-18T10:08:08.056Z,99016.86
2022-09-18T10:11:00.978Z,99022.75
2022-09-18T10:13:57.208Z,99023.13
2022-09-18T10:16:36.861Z,99030.59
2022-09-18T10:19:20.108Z,99028.48
2022-09-18T10:21:55.890Z,99035.17
2022-09-18T10:24:35.627Z,99039.67
2022-09-18T10:27:14.208Z,99039.80
2022-09-18T10:29:48.398Z,99038.43
2022-09-18T10:32:41.850Z,99047.25
2022-09-18T10:35:46.401Z,99047.08
2022-09-18T10:38:38.069Z,99045.94
2022-09-18T10:41:40.804Z,99045.85
2022-09-18T10:44:32.053Z,99044.20
2022-09-18T10:47:13.489Z,99043.98
2022-09-18T10:49:55.335Z,99048.13
2022-09-18T10:52:36.268Z,99049.65
2022-09-18T10:55:26.572Z,99053.95
2022-09-18T10:58:17.154Z,99062.90
2022-09-18T11:01:01.703Z,99060.49
2022-09-18T11:03:42.313Z,99057.56
2022-09-18T11:06:24.220Z,99058.91
2022-09-18T11:09:01.164Z,99055.87
2022-09-18T11:11:36.385Z,99055.73
2022-09-18T11:14:26.460Z,99058.08
2022-09-18T11:17:06.344Z,99061.02
2022-09-18T11:19:43.678Z,99062.25
2022-09-18T11:22:42.019Z,99059.94
2022-09-18T11:25:24.831Z,99063.11
2022-09-18T11:28:02.297Z,99064.82
2022-09-18T11:30:44.818Z,99064.83
2022-09-18T11:33:28.402Z,99063.45
2022-09-18T11:36:10.758Z,99064.05
2022-09-18T11:38:46.567Z,99058.79
2022-09-18T11:41:28.414Z,99058.05
2022-09-18T11:44:07.364Z,99060.53
2022-09-18T11:46:55.948Z,99059.92
2022-09-18T11:49:34.173Z,99059.21
2022-09-18T11:52:14.262Z,99054.73
2022-09-18T11:54:56.256Z,99055.73
2022-09-18T11:57:37.354Z,99056.80
2022-09-18T12:00:19.113Z,99055.74
2022-09-18T12:03:08.699Z,99057.73
2022-09-18T12:05:54.625Z,99057.67
2022-09-18T12:08:43.539Z,99058.59
2022-09-18T12:11:27.323Z,99058.40
2022-09-18T12:14:10.353Z,99058.29
2022-09-18T12:16:52.389Z,99058.63
2022-09-18T12:19:36.510Z,99054.57
2022-09-18T12:22:15.589Z,99056.11
2022-09-18T12:24:50.521Z,99054.63
2022-09-18T12:27:38.439Z,99059.52
2022-09-18T12:30:17.082Z,99055.73
2022-09-18T12:33:24.471Z,99054.61
2022-09-18T12:36:21.860Z,99054.80
2022-09-18T12:39:25.296Z,99060.13
2022-09-18T12:42:12.674Z,99056.81
2022-09-18T12:45:07.845Z,99065.09
2022-09-18T12:47:55.331Z,99063.41
2022-09-18T12:50:47.413Z,99063.06
2022-09-18T12:53:37.010Z,99060.30
2022-09-18T12:56:26.233Z,99062.92
2022-09-18T12:59:34.472Z,99064.05
2022-09-18T13:02:24.596Z,99064.88
2022-09-18T13:05:07.137Z,99062.44
2022-09-18T13:07:40.914Z,99063.41
2022-09-18T13:10:20.948Z,99061.45
2022-09-18T13:13:01.713Z,99062.39
2022-09-18T13:15:41.399Z,99066.48
2022-09-18T13:18:29.276Z,99068.18
2022-09-18T13:21:06.470Z,99070.72
2022-09-18T13:23:47.174Z,99071.33
2022-09-18T13:26:34.909Z,99075.38
2022-09-18T13:29:22.922Z,99079.63
2022-09-18T13:31:57.874Z,99081.75
2022-09-18T13:34:58.821Z,99079.88
2022-09-18T13:37:33.061Z,99080.43
2022-09-18T13:40:27.571Z,99082.59
2022-09-18T13:43:19.911Z,99084.51
2022-09-18T13:45:53.522Z,99084.29
2022-09-18T13:48:32.487Z,99084.98
2022-09-18T13:51:09.998Z,99091.33
2022-09-18T13:53:45.680Z,99093.13
2022-09-18T13:56:54.967Z,99098.77
2022-09-18T13:59:48.469Z,99099.81
2022-09-18T14:02:38.494Z,99101.52
2022-09-18T14:05:33.341Z,99103.08
2022-09-18T14:08:37.524Z,99102.41
2022-09-18T14:11:16.226Z,99101.68
2022-09-18T14:13:56.197Z,99098.76
2022-09-18T14:16:41.741Z,99100.27
2022-09-18T14:19:37.603Z,99103.02
2022-09-18T14:22:27.383Z,99101.46
2022-09-18T14:25:06.854Z,99102.66
2022-09-18T14:27:50.283Z,99102.88
2022-09-18T14:30:29.482Z,99101.17
2022-09-18T14:33:23.589Z,99100.34
2022-09-18T14:36:12.865Z,99102.59
2022-09-18T14:38:53.354Z,99102.23
2022-09-18T14:41:38.810Z,99106.13
2022-09-18T14:44:19.100Z,99101.98
2022-09-18T14:47:00.307Z,99102.73
2022-09-18T14:49:37.504Z,99100.20
2022-09-18T14:52:24.057Z,99103.07
2022-09-18T14:54:59.964Z,99101.19
2022-09-18T14:57:41.125Z,99101.20
2022-09-18T15:00:22.526Z,99098.55
2022-09-18T15:03:00.667Z,99098.84
2022-09-18T15:05:35.168Z,99098.79
2022-09-18T15:08:21.682Z,99100.48
2022-09-18T15:11:01.065Z,99104.77
2022-09-18T15:13:39.348Z,99103.57
2022-09-18T15:16:22.045Z,99102.44
2022-09-18T15:18:56.071Z,99101.30
2022-09-18T15:21:33.473Z,99096.90
2022-09-18T15:24:16.391Z,99089.39
2022-09-18T15:26:56.386Z,99087.21
2022-09-18T15:29:33.519Z,99085.92
2022-09-18T15:32:08.687Z,99086.17
2022-09-18T15:34:48.221Z,99085.92
2022-09-18T15:37:25.744Z,99083.09
2022-09-18T15:40:09.634Z,99079.99
2022-09-18T15:42:53.534Z,99077.10
2022-09-18T15:45:29.013Z,99081.27
2022-09-18T15:48:04.180Z,99084.98
2022-09-18T15:50:43.476Z,99080.35
2022-09-18T15:53:33.275Z,99082.96
2022-09-18T15:56:21.259Z,99083.54
2022-09-18T15:58:59.760Z,99083.77
2022-09-18T16:01:37.490Z,99083.67
2022-09-18T16:04:25.350Z,99083.77
2022-09-18T16:07:02.056Z,99081.73
2022-09-18T16:09:42.401Z,99082.84
2022-09-18T16:12:38.936Z,99081.77
2022-09-18T16:15:31.790Z,99081.83
2022-09-18T16:18:27.615Z,99083.60
2022-09-18T16:21:05.996Z,99084.73
2022-09-18T16:23:51.090Z,99081.64
2022-09-18T16:26:31.462Z,99079.34
2022-09-18T16:29:07.896Z,99079.39
2022-09-18T16:31:41.413Z,99080.02
2022-09-18T16:34:24.262Z,99083.63
2022-09-18T16:36:58.159Z,99082.48
2022-09-18T16:39:31.919Z,99084.52
2022-09-18T16:42:15.464Z,99081.41
2022-09-18T16:44:48.884Z,99082.73
2022-09-18T16:47:22.480Z,99084.98
2022-09-18T16:49:55.851Z,99085.39
2022-09-18T16:52:29.965Z,99083.73
2022-09-18T16:55:04.897Z,99082.38
2022-09-18T16:57:39.083Z,99084.02
2022-09-18T17:00:16.512Z,99086.34
2022-09-18T17:02:50.856Z,99086.02
2022-09-18T17:05:26.416Z,99089.63
2022-09-18T17:08:02.098Z,99085.25
2022-09-18T17:10:37.062Z,99088.97
2022-09-18T17:13:10.663Z,99085.98
2022-09-18T17:15:52.281Z,99084.21
2022-09-18T17:18:28.430Z,99084.02
2022-09-18T17:21:06.117Z,99086.17
2022-09-18T17:23:40.505Z,99089.52
2022-09-18T17:26:16.780Z,99090.23
2022-09-18T17:28:50.773Z,99093.91
2022-09-18T17:31:27.454Z,99095.45
2022-09-18T17:34:02.507Z,99096.39
2022-09-18T17:36:37.583Z,99099.14
2022-09-18T17:39:14.393Z,99102.14
2022-09-18T17:41:48.047Z,99097.52
2022-09-18T17:44:22.533Z,99102.02
2022-09-18T17:46:59.549Z,99101.13
2022-09-18T17:49:35.605Z,99102.06
2022-09-18T17:52:13.664Z,99103.92
2022-09-18T17:54:51.029Z,99098.69
2022-09-18T17:57:26.029Z,99103.58
2022-09-18T18:00:05.795Z,99104.63
2022-09-18T18:02:48.497Z,99106.35
2022-09-18T18:05:34.695Z,99108.16
2022-09-18T18:08:11.749Z,99111.00
2022-09-18T18:10:45.373Z,99115.05
2022-09-18T18:13:21.556Z,99119.64
2022-09-18T18:16:05.934Z,99127.29
2022-09-18T18:18:41.898Z,99129.31
2022-09-18T18:21:19.108Z,99135.98
2022-09-18T18:24:02.309Z,99136.16
2022-09-18T18:26:36.843Z,99141.23
2022-09-18T18:29:21.950Z,99141.33
2022-09-18T18:32:00.991Z,99145.66
2022-09-18T18:34:35.577Z,99147.48
2022-09-18T18:37:14.106Z,99151.20
2022-09-18T18:39:51.566Z,99152.23
2022-09-18T18:42:29.305Z,99151.42
2022-09-18T18:45:19.794Z,99157.60
2022-09-18T18:47:54.554Z,99158.03
2022-09-18T18:50:33.691Z,99154.49
2022-09-18T18:53:08.993Z,99150.47
2022-09-18T18:55:45.576Z,99150.92
2022-09-18T18:58:25.927Z,99153.33
2022-09-18T19:01:06.740Z,99153.50
2022-09-18T19:03:43.696Z,99153.56
2022-09-18T19:06:18.209Z,99152.14
2022-09-18T19:09:01.132Z,99152.77
2022-09-18T19:11:49.344Z,99151.39
2022-09-18T19:14:29.840Z,99151.18
2022-09-18T19:17:03.995Z,99154.77
2022-09-18T19:19:40.351Z,99151.86
2022-09-18T19:22:19.910Z,99156.20
2022-09-18T19:24:56.295Z,99156.43
2022-09-18T19:27:30.899Z,99159.86
2022-09-18T19:30:05.211Z,99159.59
2022-09-18T19:32:38.923Z,99160.48
2022-09-18T19:35:13.565Z,99159.48
2022-09-18T19:37:48.467Z,99162.30
2022-09-18T19:40:32.301Z,99163.23
2022-09-18T19:43:12.766Z,99164.90
2022-09-18T19:45:48.705Z,99166.54
2022-09-18T19:48:26.691Z,99168.52
2022-09-18T19:51:05.622Z,99168.25
2022-09-18T19:53:43.682Z,99164.50
2022-09-18T19:56:41.621Z,99169.95
2022-09-18T19:59:18.551Z,99165.23
2022-09-18T20:01:52.200Z,99162.88
2022-09-18T20:04:26.714Z,99165.69
2022-09-18T20:07:00.565Z,99164.38
2022-09-18T20:09:40.492Z,99162.63
2022-09-18T20:12:14.473Z,99161.15
2022-09-18T20:14:48.679Z,99161.78
2022-09-18T20:17:22.674Z,99159.31
2022-09-18T20:20:18.058Z,99157.96
2022-09-18T20:22:53.757Z,99158.11
2022-09-18T20:25:28.295Z,99155.94
2022-09-18T20:28:02.483Z,99155.92
2022-09-18T20:30:36.302Z,99152.21
2022-09-18T20:33:10.413Z,99147.23
2022-09-18T20:35:45.781Z,99148.64
2022-09-18T20:38:19.481Z,99146.57
2022-09-18T20:41:06.831Z,99147.82
2022-09-18T20:43:41.272Z,99146.73
2022-09-18T20:46:17.604Z,99145.63
2022-09-18T20:48:55.607Z,99145.72
2022-09-18T20:51:35.022Z,99139.18
2022-09-18T20:54:09.379Z,99142.18
2022-09-18T20:56:45.020Z,99142.38
2022-09-18T20:59:19.843Z,99144.05
2022-09-18T21:01:56.724Z,99144.39
2022-09-18T21:04:34.697Z,99143.47
2022-09-18T21:07:08.080Z,99134.92
2022-09-18T21:09:41.546Z,99133.50
2022-09-18T21:12:15.117Z,99131.36
2022-09-18T21:14:49.257Z,99131.30
2022-09-18T21:17:22.937Z,99129.80
2022-09-18T21:19:57.933Z,99129.20
2022-09-18T21:23:09.876Z,99125.71
2022-09-18T21:25:43.826Z,99131.21
2022-09-18T21:28:17.406Z,99129.62
2022-09-18T21:30:50.867Z,99129.29
2022-09-18T21:33:24.312Z,99131.64
2022-09-18T21:35:57.671Z,99135.41
2022-09-18T21:38:32.096Z,99130.98
2022-09-18T21:41:16.546Z,99131.56
2022-09-18T21:43:50.992Z,99129.03
2022-09-18T21:46:25.689Z,99128.64
2022-09-18T21:48:59.157Z,99126.43
2022-09-18T21:51:35.695Z,99126.81
2022-09-18T21:54:11.660Z,99124.71
2022-09-18T21:56:49.300Z,99123.45
2022-09-18T21:59:27.511Z,99122.96
2022-09-18T22:02:05.064Z,99124.99
2022-09-18T22:04:42.209Z,99128.80
2022-09-18T22:07:18.390Z,99128.59
2022-09-18T22:09:55.418Z,99125.55
2022-09-18T22:12:33.141Z,99123.40
2022-09-18T22:15:11.362Z,99123.03
2022-09-18T22:17:44.781Z,99127.36
2022-09-18T22:20:38.527Z,99128.88
2022-09-18T22:23:12.450Z,99120.20
2022-09-18T22:25:46.174Z,99123.56
2022-09-18T22:28:20.339Z,99127.29
2022-09-18T22:30:54.259Z,99123.22
2022-09-18T22:33:27.818Z,99127.27
2022-09-18T22:36:06.275Z,99128.67
2022-09-18T22:38:39.338Z,99132.23
2022-09-18T22:41:13.632Z,99131.95
2022-09-18T22:43:47.629Z,99136.05
2022-09-18T22:46:21.465Z,99137.07
2022-09-18T22:48:55.153Z,99132.39
2022-09-18T22:51:29.479Z,99138.63
2022-09-18T22:54:05.046Z,99141.35
2022-09-18T22:56:41.438Z,99144.27
2022-09-18T22:59:16.126Z,99142.04
2022-09-18T23:01:52.875Z,99143.91
2022-09-18T23:04:29.459Z,99150.89
2022-09-18T23:07:03.679Z,99150.19
2022-09-18T23:09:37.128Z,99153.87
2022-09-18T23:12:11.357Z,99154.83
2022-09-18T23:14:44.922Z,99151.39
2022-09-18T23:17:18.880Z,99151.70
2022-09-18T23:19:55.918Z,99150.88
2022-09-18T23:22:29.548Z,99149.49
2022-09-18T23:25:03.022Z,99148.36
2022-09-18T23:27:36.613Z,99144.02
2022-09-18T23:30:12.298Z,99144.20
2022-09-18T23:32:48.883Z,99147.04
2022-09-18T23:35:22.849Z,99143.58
2022-09-18T23:37:56.781Z,99140.67
2022-09-18T23:40:30.940Z,99140.88
2022-09-18T23:43:04.356Z,99138.95
2022-09-18T23:45:38.082Z,99134.52
2022-09-18T23:48:11.512Z,99134.48
2022-09-18T23:50:44.726Z,99137.00
2022-09-18T23:53:18.741Z,99134.83
2022-09-18T23:55:53.109Z,99134.03
2022-09-18T23:58:26.629Z,99133.79
